createdAt,value
2022-08-31T00:00:01.982Z,22.00
2022-08-31T00:01:52.488Z,22.00
2022-08-31T00:03:42.974Z,21.90
2022-08-31T00:05:16.036Z,21.90
2022-08-31T00:06:54.025Z,22.00
2022-08-31T00:08:27.654Z,21.90
2022-08-31T00:10:00.378Z,21.90
2022-08-31T00:11:36.119Z,21.90
2022-08-31T00:13:09.800Z,21.90
2022-08-31T00:14:44.282Z,21.90
2022-08-31T00:16:17.415Z,21.80
2022-08-31T00:17:50.624Z,21.90
2022-08-31T00:19:22.503Z,21.80
2022-08-31T00:20:55.693Z,21.80
2022-08-31T00:22:28.429Z,21.80
2022-08-31T00:24:01.160Z,21.80
2022-08-31T00:25:34.646Z,21.80
2022-08-31T00:27:07.427Z,21.80
2022-08-31T00:28:40.165Z,21.80
2022-08-31T00:30:13.878Z,21.70
2022-08-31T00:31:46.849Z,21.70
2022-08-31T00:33:19.754Z,21.70
2022-08-31T00:34:53.194Z,21.70
2022-08-31T00:36:27.508Z,21.70
2022-08-31T00:38:00.461Z,21.70
2022-08-31T00:39:33.186Z,21.70
2022-08-31T00:41:06.995Z,21.70
2022-08-31T00:42:39.883Z,21.70
2022-08-31T00:44:12.754Z,21.60
2022-08-31T00:45:46.068Z,21.60
2022-08-31T00:47:19.023Z,21.60
2022-08-31T00:48:58.346Z,21.60
2022-08-31T00:50:31.080Z,21.60
2022-08-31T00:52:08.352Z,21.60
2022-08-31T00:53:40.213Z,21.50
2022-08-31T00:55:16.705Z,21.60
2022-08-31T00:56:49.809Z,21.60
2022-08-31T00:58:22.850Z,21.60
2022-08-31T00:59:55.639Z,21.50
2022-08-31T01:01:30.705Z,21.60
2022-08-31T01:03:05.964Z,21.50
2022-08-31T01:04:38.779Z,21.50
2022-08-31T01:06:11.704Z,21.50
2022-08-31T01:07:47.562Z,21.40
2022-08-31T01:09:22.909Z,21.40
2022-08-31T01:10:55.276Z,21.40
2022-08-31T01:12:29.325Z,21.40
2022-08-31T01:14:02.884Z,21.40
2022-08-31T01:15:37.733Z,21.40
2022-08-31T01:17:11.828Z,21.40
2022-08-31T01:18:47.102Z,21.30
2022-08-31T01:20:25.710Z,21.30
2022-08-31T01:22:04.595Z,21.30
2022-08-31T01:23:43.669Z,21.30
2022-08-31T01:25:16.714Z,21.30
2022-08-31T01:26:49.876Z,21.40
2022-08-31T01:28:28.389Z,21.30
2022-08-31T01:30:01.573Z,21.30
2022-08-31T01:31:36.423Z,21.20
2022-08-31T01:33:09.260Z,21.20
2022-08-31T01:34:42.021Z,21.20
2022-08-31T01:36:16.232Z,21.20
2022-08-31T01:37:49.435Z,21.20
2022-08-31T01:39:24.434Z,21.30
2022-08-31T01:41:01.811Z,21.30
2022-08-31T01:42:34.744Z,21.30
2022-08-31T01:44:07.577Z,21.30
2022-08-31T01:45:40.304Z,21.20
2022-08-31T01:47:13.195Z,21.30
2022-08-31T01:48:47.865Z,21.20
2022-08-31T01:50:19.706Z,21.20
2022-08-31T01:51:54.465Z,21.20
2022-08-31T01:53:27.233Z,21.20
2022-08-31T01:55:03.489Z,21.20
2022-08-31T01:56:38.519Z,21.10
2022-08-31T01:58:11.337Z,21.10
2022-08-31T01:59:44.093Z,21.20
2022-08-31T02:01:32.583Z,21.10
2022-08-31T02:03:08.180Z,21.10
2022-08-31T02:04:41.149Z,21.10
2022-08-31T02:06:14.647Z,21.10
2022-08-31T02:07:46.520Z,21.10
2022-08-31T02:09:19.780Z,21.10
2022-08-31T02:10:52.912Z,21.10
2022-08-31T02:12:25.725Z,21.10
2022-08-31T02:13:58.504Z,21.00
2022-08-31T02:15:31.349Z,21.00
2022-08-31T02:17:04.169Z,21.10
2022-08-31T02:18:37.583Z,21.00
2022-08-31T02:20:11.145Z,21.00
2022-08-31T02:21:43.886Z,21.00
2022-08-31T02:23:16.708Z,20.90
2022-08-31T02:24:49.481Z,20.90
2022-08-31T02:26:23.972Z,20.90
2022-08-31T02:27:56.784Z,20.90
2022-08-31T02:29:29.889Z,20.90
2022-08-31T02:31:02.812Z,20.80
2022-08-31T02:32:34.674Z,20.80
2022-08-31T02:34:07.434Z,20.80
2022-08-31T02:35:40.613Z,20.80
2022-08-31T02:37:12.378Z,20.80
2022-08-31T02:38:45.104Z,20.80
2022-08-31T02:40:17.937Z,20.80
2022-08-31T02:41:52.329Z,20.80
2022-08-31T02:43:25.408Z,20.80
2022-08-31T02:44:58.277Z,20.70
2022-08-31T02:46:31.024Z,20.80
2022-08-31T02:48:04.911Z,20.80
2022-08-31T02:49:37.789Z,20.80
2022-08-31T02:51:10.627Z,20.70
2022-08-31T02:52:43.356Z,20.80
2022-08-31T02:54:16.101Z,20.80
2022-08-31T02:55:49.388Z,20.70
2022-08-31T02:57:23.881Z,20.70
2022-08-31T02:58:56.614Z,20.60
2022-08-31T03:00:28.441Z,20.70
2022-08-31T03:02:01.269Z,20.70
2022-08-31T03:03:35.368Z,20.60
2022-08-31T03:05:10.125Z,20.60
2022-08-31T03:06:43.220Z,20.60
2022-08-31T03:08:16.053Z,20.60
2022-08-31T03:09:48.812Z,20.60
2022-08-31T03:11:21.567Z,20.70
2022-08-31T03:12:56.072Z,20.70
2022-08-31T03:14:28.867Z,20.70
2022-08-31T03:16:01.659Z,20.70
2022-08-31T03:17:33.809Z,20.60
2022-08-31T03:19:06.571Z,20.60
2022-08-31T03:20:39.301Z,20.70
2022-08-31T03:22:13.393Z,20.60
2022-08-31T03:23:46.129Z,20.60
2022-08-31T03:25:19.219Z,20.50
2022-08-31T03:26:51.950Z,20.50
2022-08-31T03:28:26.065Z,20.50
2022-08-31T03:29:59.833Z,20.50
2022-08-31T03:31:33.303Z,20.50
2022-08-31T03:33:06.073Z,20.50
2022-08-31T03:34:38.812Z,20.40
2022-08-31T03:36:11.543Z,20.50
2022-08-31T03:37:44.330Z,20.40
2022-08-31T03:39:17.388Z,20.40
2022-08-31T03:40:50.919Z,20.40
2022-08-31T03:42:23.047Z,20.40
2022-08-31T03:43:57.135Z,20.40
2022-08-31T03:45:31.949Z,20.40
2022-08-31T03:47:04.939Z,20.40
2022-08-31T03:48:37.651Z,20.40
2022-08-31T03:50:13.269Z,20.40
2022-08-31T03:51:46.269Z,20.50
2022-08-31T03:53:22.883Z,20.50
2022-08-31T03:54:54.757Z,20.50
2022-08-31T03:56:27.479Z,20.50
2022-08-31T03:58:00.620Z,20.50
2022-08-31T03:59:33.792Z,20.50
2022-08-31T04:01:07.446Z,20.50
2022-08-31T04:02:40.450Z,20.50
2022-08-31T04:04:12.698Z,20.50
2022-08-31T04:05:45.906Z,20.50
2022-08-31T04:07:19.197Z,20.50
2022-08-31T04:08:51.946Z,20.60
2022-08-31T04:10:28.014Z,20.50
2022-08-31T04:12:00.763Z,20.50
2022-08-31T04:13:32.558Z,20.50
2022-08-31T04:15:08.283Z,20.50
2022-08-31T04:16:42.298Z,20.60
2022-08-31T04:18:15.016Z,20.50
2022-08-31T04:19:47.792Z,20.60
2022-08-31T04:21:24.168Z,20.60
2022-08-31T04:22:56.888Z,20.50
2022-08-31T04:24:29.369Z,20.50
2022-08-31T04:26:02.133Z,20.50
2022-08-31T04:27:34.914Z,20.50
2022-08-31T04:29:12.218Z,20.50
2022-08-31T04:30:48.418Z,20.50
2022-08-31T04:32:21.568Z,20.50
2022-08-31T04:33:56.353Z,20.50
2022-08-31T04:35:29.173Z,20.50
2022-08-31T04:37:01.892Z,20.50
2022-08-31T04:38:34.161Z,20.50
2022-08-31T04:40:18.203Z,20.50
2022-08-31T04:41:51.966Z,20.50
2022-08-31T04:43:25.045Z,20.50
2022-08-31T04:44:57.935Z,20.40
2022-08-31T04:46:33.773Z,20.40
2022-08-31T04:48:06.544Z,20.50
2022-08-31T04:49:39.925Z,20.50
2022-08-31T04:51:14.628Z,20.40
2022-08-31T04:53:03.142Z,20.40
2022-08-31T04:54:36.832Z,20.40
2022-08-31T04:56:14.445Z,20.40
2022-08-31T04:57:47.172Z,20.40
2022-08-31T04:59:25.352Z,20.40
2022-08-31T05:00:58.083Z,20.40
2022-08-31T05:02:32.854Z,20.30
2022-08-31T05:04:06.862Z,20.30
2022-08-31T05:05:40.509Z,20.30
2022-08-31T05:07:13.220Z,20.30
2022-08-31T05:08:45.329Z,20.30
2022-08-31T05:10:18.924Z,20.30
2022-08-31T05:11:53.141Z,20.30
2022-08-31T05:13:24.925Z,20.30
2022-08-31T05:14:57.827Z,20.30
2022-08-31T05:16:30.750Z,20.30
2022-08-31T05:18:05.237Z,20.30
2022-08-31T05:19:41.334Z,20.30
2022-08-31T05:21:16.755Z,20.30
2022-08-31T05:22:49.608Z,20.30
2022-08-31T05:24:23.864Z,20.30
2022-08-31T05:25:57.626Z,20.30
2022-08-31T05:27:30.386Z,20.30
2022-08-31T05:29:06.322Z,20.30
2022-08-31T05:30:44.547Z,20.20
2022-08-31T05:32:17.312Z,20.30
2022-08-31T05:33:52.447Z,20.20
2022-08-31T05:35:25.187Z,20.20
2022-08-31T05:36:58.470Z,20.20
2022-08-31T05:38:31.841Z,20.20
2022-08-31T05:40:05.382Z,20.20
2022-08-31T05:41:38.567Z,20.20
2022-08-31T05:43:11.345Z,20.20
2022-08-31T05:44:44.091Z,20.20
2022-08-31T05:46:17.868Z,20.20
2022-08-31T05:47:50.624Z,20.20
2022-08-31T05:49:27.970Z,20.20
2022-08-31T05:51:02.424Z,20.20
2022-08-31T05:52:35.146Z,20.20
2022-08-31T05:54:10.656Z,20.20
2022-08-31T05:55:43.608Z,20.20
2022-08-31T05:57:16.344Z,20.20
2022-08-31T05:58:49.785Z,20.20
2022-08-31T06:00:22.864Z,20.20
2022-08-31T06:01:55.681Z,20.10
2022-08-31T06:03:29.206Z,20.10
2022-08-31T06:05:03.506Z,20.10
2022-08-31T06:06:37.065Z,20.10
2022-08-31T06:08:13.215Z,20.10
2022-08-31T06:09:48.041Z,20.00
2022-08-31T06:11:23.754Z,20.00
2022-08-31T06:12:56.491Z,19.90
2022-08-31T06:14:29.276Z,19.90
2022-08-31T06:16:03.917Z,19.80
2022-08-31T06:17:37.530Z,19.80
2022-08-31T06:19:10.453Z,19.70
2022-08-31T06:20:45.621Z,19.70
2022-08-31T06:22:19.985Z,19.60
2022-08-31T06:23:54.399Z,19.60
2022-08-31T06:25:27.999Z,19.50
2022-08-31T06:27:01.694Z,19.40
2022-08-31T06:28:33.609Z,19.30
2022-08-31T06:30:08.046Z,19.30
2022-08-31T06:31:47.181Z,19.20
2022-08-31T06:33:20.138Z,19.20
2022-08-31T06:34:53.139Z,19.20
2022-08-31T06:36:29.442Z,19.10
2022-08-31T06:38:02.144Z,19.10
2022-08-31T06:39:34.959Z,19.10
2022-08-31T06:41:15.767Z,19.10
2022-08-31T06:42:48.497Z,18.90
2022-08-31T06:44:22.551Z,18.90
2022-08-31T06:45:58.185Z,18.80
2022-08-31T06:47:31.603Z,18.70
2022-08-31T06:49:05.096Z,18.70
2022-08-31T06:50:41.553Z,18.70
2022-08-31T06:52:15.808Z,18.70
2022-08-31T06:53:48.591Z,18.60
2022-08-31T06:55:21.497Z,18.50
2022-08-31T06:56:54.230Z,18.40
2022-08-31T06:58:26.945Z,18.30
2022-08-31T06:59:59.657Z,18.30
2022-08-31T07:01:35.171Z,18.30
2022-08-31T07:03:23.046Z,18.20
2022-08-31T07:04:56.936Z,18.20
2022-08-31T07:06:31.825Z,18.30
2022-08-31T07:08:06.086Z,18.20
2022-08-31T07:09:41.067Z,18.10
2022-08-31T07:11:14.597Z,18.10
2022-08-31T07:12:47.312Z,18.00
2022-08-31T07:14:22.893Z,18.10
2022-08-31T07:16:04.313Z,18.10
2022-08-31T07:17:37.781Z,18.10
2022-08-31T07:19:11.404Z,18.10
2022-08-31T07:20:44.180Z,18.10
2022-08-31T07:22:16.894Z,18.10
2022-08-31T07:23:51.980Z,18.20
2022-08-31T07:25:26.395Z,18.20
2022-08-31T07:27:02.232Z,18.30
2022-08-31T07:28:35.262Z,18.30
2022-08-31T07:30:09.694Z,18.30
2022-08-31T07:31:44.644Z,18.40
2022-08-31T07:33:18.178Z,18.40
2022-08-31T07:34:58.605Z,18.50
2022-08-31T07:36:33.420Z,18.50
2022-08-31T07:38:24.165Z,18.50
2022-08-31T07:40:15.802Z,18.50
2022-08-31T07:42:20.685Z,18.60
2022-08-31T07:43:55.483Z,18.60
2022-08-31T07:45:29.398Z,18.60
2022-08-31T07:47:04.571Z,18.70
2022-08-31T07:48:37.555Z,18.70
2022-08-31T07:50:10.579Z,18.80
2022-08-31T07:51:50.256Z,18.80
2022-08-31T07:53:23.034Z,18.90
2022-08-31T07:55:06.326Z,18.90
2022-08-31T07:56:39.120Z,18.90
2022-08-31T07:58:15.430Z,18.90
2022-08-31T07:59:49.507Z,18.90
2022-08-31T08:01:22.576Z,18.90
2022-08-31T08:02:55.810Z,18.90
2022-08-31T08:04:29.208Z,18.90
2022-08-31T08:06:01.981Z,18.80
2022-08-31T08:07:35.548Z,18.80
2022-08-31T08:09:23.938Z,18.80
2022-08-31T08:10:59.361Z,18.80
2022-08-31T08:12:36.252Z,18.70
2022-08-31T08:14:09.145Z,18.70
2022-08-31T08:15:41.950Z,18.60
2022-08-31T08:17:14.680Z,18.60
2022-08-31T08:18:47.788Z,18.50
2022-08-31T08:20:21.813Z,18.50
2022-08-31T08:22:10.206Z,18.50
2022-08-31T08:23:42.960Z,18.50
2022-08-31T08:25:16.601Z,18.50
2022-08-31T08:26:54.341Z,18.50
2022-08-31T08:28:39.176Z,18.50
2022-08-31T08:30:14.467Z,18.60
2022-08-31T08:31:52.878Z,18.60
2022-08-31T08:33:28.023Z,18.70
2022-08-31T08:35:00.994Z,18.70
2022-08-31T08:36:35.761Z,18.70
2022-08-31T08:38:08.730Z,18.70
2022-08-31T08:39:43.224Z,18.70
2022-08-31T08:41:19.903Z,18.70
2022-08-31T08:42:54.347Z,18.70
2022-08-31T08:44:29.561Z,18.70
2022-08-31T08:46:25.284Z,18.70
2022-08-31T08:47:58.149Z,18.70
2022-08-31T08:49:39.734Z,18.70
2022-08-31T08:51:15.718Z,18.70
2022-08-31T08:52:48.804Z,18.70
2022-08-31T08:54:29.437Z,18.70
2022-08-31T08:56:23.107Z,18.70
2022-08-31T08:57:56.594Z,18.70
2022-08-31T08:59:29.596Z,18.70
2022-08-31T09:01:04.559Z,18.80
2022-08-31T09:02:42.694Z,18.70
2022-08-31T09:04:26.173Z,18.70
2022-08-31T09:06:06.998Z,18.70
2022-08-31T09:07:58.557Z,18.70
2022-08-31T09:09:37.401Z,18.70
2022-08-31T09:11:17.701Z,18.70
2022-08-31T09:12:59.189Z,18.70
2022-08-31T09:14:58.168Z,18.70
2022-08-31T09:16:40.897Z,18.70
2022-08-31T09:18:26.395Z,18.70
2022-08-31T09:20:00.299Z,18.80
2022-08-31T09:21:37.068Z,18.80
2022-08-31T09:23:10.011Z,18.90
2022-08-31T09:24:42.910Z,18.90
2022-08-31T09:26:18.373Z,18.90
2022-08-31T09:27:57.079Z,19.00
2022-08-31T09:29:33.095Z,19.00
2022-08-31T09:31:06.285Z,19.00
2022-08-31T09:32:40.112Z,19.00
2022-08-31T09:34:28.399Z,19.00
2022-08-31T09:36:16.801Z,19.00
2022-08-31T09:37:59.926Z,19.10
2022-08-31T09:39:37.060Z,19.00
2022-08-31T09:41:23.007Z,19.00
2022-08-31T09:43:10.112Z,19.10
2022-08-31T09:44:50.133Z,19.10
2022-08-31T09:46:27.942Z,19.10
2022-08-31T09:48:01.485Z,19.10
2022-08-31T09:49:37.517Z,19.10
2022-08-31T09:51:10.402Z,19.10
2022-08-31T09:53:00.881Z,19.10
2022-08-31T09:54:51.352Z,19.10
2022-08-31T09:56:25.081Z,19.10
2022-08-31T09:58:03.076Z,19.00
2022-08-31T09:59:41.864Z,19.00
2022-08-31T10:01:27.699Z,19.00
2022-08-31T10:03:13.508Z,19.00
2022-08-31T10:04:51.069Z,19.10
2022-08-31T10:06:30.193Z,19.20
2022-08-31T10:08:07.904Z,19.20
2022-08-31T10:09:46.991Z,19.20
2022-08-31T10:11:23.101Z,19.30
2022-08-31T10:13:00.196Z,19.40
2022-08-31T10:14:41.185Z,19.40
2022-08-31T10:16:25.888Z,19.40
2022-08-31T10:18:11.805Z,19.40
2022-08-31T10:19:53.295Z,19.50
2022-08-31T10:21:35.204Z,19.50
2022-08-31T10:23:19.120Z,19.50
2022-08-31T10:25:04.449Z,19.60
2022-08-31T10:26:42.442Z,19.60
2022-08-31T10:28:21.203Z,19.60
2022-08-31T10:29:58.908Z,19.60
2022-08-31T10:31:45.298Z,19.60
2022-08-31T10:33:25.069Z,19.60
2022-08-31T10:35:05.647Z,19.60
2022-08-31T10:36:40.964Z,19.60
2022-08-31T10:38:21.149Z,19.60
2022-08-31T10:39:58.237Z,19.60
2022-08-31T10:41:36.215Z,19.70
2022-08-31T10:43:17.643Z,19.70
2022-08-31T10:44:57.118Z,19.80
2022-08-31T10:46:35.350Z,19.80
2022-08-31T10:48:12.663Z,19.80
2022-08-31T10:49:45.414Z,19.80
2022-08-31T10:51:22.292Z,19.80
2022-08-31T10:53:03.726Z,19.90
2022-08-31T10:54:45.560Z,19.90
2022-08-31T10:56:23.912Z,19.90
2022-08-31T10:58:03.890Z,19.90
2022-08-31T10:59:45.978Z,19.90
2022-08-31T11:01:27.932Z,19.80
2022-08-31T11:03:07.944Z,19.70
2022-08-31T11:04:55.942Z,19.70
2022-08-31T11:06:34.272Z,19.80
2022-08-31T11:08:23.176Z,19.80
2022-08-31T11:10:05.975Z,19.80
2022-08-31T11:11:43.960Z,19.90
2022-08-31T11:13:28.875Z,20.00
2022-08-31T11:15:32.224Z,20.00
2022-08-31T11:17:29.857Z,20.00
2022-08-31T11:19:25.425Z,20.00
2022-08-31T11:21:13.849Z,20.00
2022-08-31T11:23:12.255Z,20.00
2022-08-31T11:25:08.528Z,20.10
2022-08-31T11:26:50.862Z,20.00
2022-08-31T11:28:33.977Z,20.10
2022-08-31T11:30:12.104Z,20.10
2022-08-31T11:31:46.292Z,20.20
2022-08-31T11:33:24.842Z,20.20
2022-08-31T11:35:00.957Z,20.30
2022-08-31T11:36:50.017Z,20.30
2022-08-31T11:38:41.356Z,20.30
2022-08-31T11:40:15.060Z,20.40
2022-08-31T11:41:48.991Z,20.40
2022-08-31T11:43:43.536Z,20.50
2022-08-31T11:45:27.858Z,20.50
2022-08-31T11:47:06.731Z,20.50
2022-08-31T11:49:01.529Z,20.60
2022-08-31T11:51:03.945Z,20.60
2022-08-31T11:52:48.030Z,20.70
2022-08-31T11:55:00.782Z,20.70
2022-08-31T11:56:36.446Z,20.80
2022-08-31T11:58:34.558Z,20.90
2022-08-31T12:00:20.376Z,20.90
2022-08-31T12:01:56.496Z,21.00
2022-08-31T12:03:34.740Z,21.00
2022-08-31T12:05:07.902Z,21.10
2022-08-31T12:07:11.452Z,21.20
2022-08-31T12:08:52.141Z,21.30
2022-08-31T12:10:37.232Z,21.30
2022-08-31T12:12:21.634Z,21.30
2022-08-31T12:14:01.213Z,21.40
2022-08-31T12:15:49.412Z,21.40
2022-08-31T12:17:28.448Z,21.40
2022-08-31T12:19:37.909Z,21.50
2022-08-31T12:21:39.295Z,21.60
2022-08-31T12:23:37.218Z,21.70
2022-08-31T12:25:22.213Z,21.70
2022-08-31T12:27:02.822Z,21.80
2022-08-31T12:28:49.596Z,21.90
2022-08-31T12:30:24.835Z,21.90
2022-08-31T12:32:21.151Z,22.00
2022-08-31T12:34:00.604Z,22.00
2022-08-31T12:35:34.390Z,22.00
2022-08-31T12:37:22.840Z,22.00
2022-08-31T12:39:07.264Z,22.10
2022-08-31T12:40:45.966Z,22.10
2022-08-31T12:42:19.542Z,22.10
2022-08-31T12:43:52.948Z,22.20
2022-08-31T12:45:41.745Z,22.10
2022-08-31T12:47:24.932Z,22.10
2022-08-31T12:49:28.432Z,22.10
2022-08-31T12:51:08.811Z,22.10
2022-08-31T12:52:59.013Z,22.10
2022-08-31T12:54:51.158Z,22.10
2022-08-31T12:56:34.427Z,22.10
2022-08-31T12:58:28.044Z,22.20
2022-08-31T13:00:07.477Z,22.20
2022-08-31T13:01:42.718Z,22.20
2022-08-31T13:03:21.068Z,22.20
2022-08-31T13:04:54.408Z,22.20
2022-08-31T13:06:30.433Z,22.30
2022-08-31T13:08:20.777Z,22.40
2022-08-31T13:10:06.474Z,22.40
2022-08-31T13:11:42.576Z,22.50
2022-08-31T13:13:23.419Z,22.50
2022-08-31T13:14:56.164Z,22.60
2022-08-31T13:16:29.042Z,22.60
2022-08-31T13:18:02.725Z,22.60
2022-08-31T13:19:37.246Z,22.50
2022-08-31T13:21:10.957Z,22.50
2022-08-31T13:22:48.267Z,22.50
2022-08-31T13:24:28.277Z,22.40
2022-08-31T13:26:02.456Z,22.50
2022-08-31T13:27:38.739Z,22.50
2022-08-31T13:29:15.624Z,22.60
2022-08-31T13:31:02.818Z,22.70
2022-08-31T13:32:36.177Z,22.80
2022-08-31T13:34:09.481Z,22.90
2022-08-31T13:35:49.629Z,23.00
2022-08-31T13:37:30.478Z,23.10
2022-08-31T13:39:08.638Z,23.00
2022-08-31T13:40:50.228Z,23.00
2022-08-31T13:42:31.795Z,23.00
2022-08-31T13:44:10.111Z,23.00
2022-08-31T13:45:58.478Z,22.90
2022-08-31T13:47:47.517Z,22.90
2022-08-31T13:49:35.495Z,22.90
2022-08-31T13:51:14.676Z,22.90
2022-08-31T13:53:09.524Z,23.00
2022-08-31T13:54:43.698Z,23.00
2022-08-31T13:56:54.690Z,23.00
2022-08-31T13:58:29.208Z,23.00
2022-08-31T14:00:36.596Z,23.00
2022-08-31T14:02:30.777Z,23.00
2022-08-31T14:04:43.803Z,23.00
2022-08-31T14:06:24.696Z,22.90
2022-08-31T14:08:03.581Z,22.90
2022-08-31T14:09:42.117Z,22.90
2022-08-31T14:11:15.029Z,22.80
2022-08-31T14:12:51.876Z,22.80
2022-08-31T14:14:39.704Z,22.80
2022-08-31T14:16:32.437Z,22.70
2022-08-31T14:18:24.061Z,22.70
2022-08-31T14:19:59.680Z,22.70
2022-08-31T14:21:35.153Z,22.70
2022-08-31T14:23:27.662Z,22.70
2022-08-31T14:25:02.612Z,22.70
2022-08-31T14:26:37.307Z,22.80
2022-08-31T14:28:09.055Z,22.80
2022-08-31T14:29:42.069Z,22.90
2022-08-31T14:31:24.169Z,22.90
2022-08-31T14:32:58.115Z,22.90
2022-08-31T14:34:32.043Z,23.00
2022-08-31T14:36:14.577Z,23.10
2022-08-31T14:37:48.018Z,23.00
2022-08-31T14:39:23.017Z,23.00
2022-08-31T14:40:57.383Z,23.00
2022-08-31T14:42:34.712Z,23.00
2022-08-31T14:44:09.223Z,23.10
2022-08-31T14:45:44.246Z,23.10
2022-08-31T14:47:19.977Z,23.10
2022-08-31T14:48:51.810Z,23.10
2022-08-31T14:50:27.065Z,23.20
2022-08-31T14:52:04.591Z,23.20
2022-08-31T14:53:38.032Z,23.20
2022-08-31T14:55:12.013Z,23.30
2022-08-31T14:56:48.772Z,23.30
2022-08-31T14:58:23.820Z,23.40
2022-08-31T15:00:00.852Z,23.40
2022-08-31T15:01:35.692Z,23.40
2022-08-31T15:03:11.860Z,23.50
2022-08-31T15:04:45.827Z,23.50
2022-08-31T15:06:20.620Z,23.60
2022-08-31T15:07:54.729Z,23.70
2022-08-31T15:09:27.473Z,23.70
2022-08-31T15:11:00.191Z,23.70
2022-08-31T15:12:33.456Z,23.70
2022-08-31T15:14:12.219Z,23.80
2022-08-31T15:15:47.671Z,23.80
2022-08-31T15:17:24.484Z,23.80
2022-08-31T15:18:58.794Z,23.80
2022-08-31T15:20:37.300Z,23.90
2022-08-31T15:22:10.244Z,23.90
2022-08-31T15:23:44.832Z,23.90
2022-08-31T15:25:18.717Z,23.90
2022-08-31T15:26:53.226Z,23.90
2022-08-31T15:28:25.014Z,23.90
2022-08-31T15:30:02.440Z,23.80
2022-08-31T15:31:35.336Z,23.80
2022-08-31T15:33:09.983Z,23.80
2022-08-31T15:34:53.236Z,23.80
2022-08-31T15:36:27.024Z,23.90
2022-08-31T15:38:03.133Z,23.80
2022-08-31T15:39:40.942Z,23.80
2022-08-31T15:41:14.111Z,23.70
2022-08-31T15:42:46.866Z,23.70
2022-08-31T15:44:20.041Z,23.60
2022-08-31T15:45:52.873Z,23.60
2022-08-31T15:47:45.093Z,23.60
2022-08-31T15:49:16.874Z,23.60
2022-08-31T15:50:58.124Z,23.50
2022-08-31T15:52:32.606Z,23.60
2022-08-31T15:54:21.368Z,23.50
2022-08-31T15:55:55.272Z,23.50
2022-08-31T15:57:29.120Z,23.60
2022-08-31T15:59:04.284Z,23.60
2022-08-31T16:00:37.409Z,23.50
2022-08-31T16:02:12.666Z,23.50
2022-08-31T16:03:51.988Z,23.50
2022-08-31T16:05:28.282Z,23.60
2022-08-31T16:07:05.140Z,23.50
2022-08-31T16:08:41.197Z,23.50
2022-08-31T16:10:19.806Z,23.50
2022-08-31T16:11:53.112Z,23.50
2022-08-31T16:13:25.963Z,23.50
2022-08-31T16:14:58.825Z,23.50
2022-08-31T16:16:34.824Z,23.50
2022-08-31T16:18:08.911Z,23.50
2022-08-31T16:19:41.899Z,23.50
2022-08-31T16:21:15.452Z,23.50
2022-08-31T16:22:49.730Z,23.50
2022-08-31T16:24:24.144Z,23.60
2022-08-31T16:25:57.370Z,23.60
2022-08-31T16:27:30.234Z,23.60
2022-08-31T16:29:04.677Z,23.60
2022-08-31T16:30:37.539Z,23.50
2022-08-31T16:32:10.669Z,23.50
2022-08-31T16:33:44.684Z,23.50
2022-08-31T16:35:17.785Z,23.50
2022-08-31T16:36:52.295Z,23.50
2022-08-31T16:38:26.467Z,23.60
2022-08-31T16:39:59.345Z,23.60
2022-08-31T16:41:34.512Z,23.60
2022-08-31T16:43:07.364Z,23.60
2022-08-31T16:44:41.167Z,23.60
2022-08-31T16:46:39.593Z,23.60
2022-08-31T16:48:29.521Z,23.60
2022-08-31T16:50:08.153Z,23.60
2022-08-31T16:51:42.812Z,23.60
2022-08-31T16:53:18.195Z,23.60
2022-08-31T16:54:53.350Z,23.60
2022-08-31T16:56:29.172Z,23.60
2022-08-31T16:58:02.025Z,23.60
2022-08-31T16:59:36.408Z,23.50
2022-08-31T17:01:12.738Z,23.50
2022-08-31T17:02:46.669Z,23.50
2022-08-31T17:04:48.190Z,23.50
2022-08-31T17:06:16.953Z,23.50
2022-08-31T17:07:49.834Z,23.50
2022-08-31T17:09:26.788Z,23.50
2022-08-31T17:11:04.176Z,23.50
2022-08-31T17:12:38.359Z,23.50
2022-08-31T17:14:13.456Z,23.50
2022-08-31T17:15:46.321Z,23.50
2022-08-31T17:17:21.817Z,23.50
2022-08-31T17:18:57.539Z,23.50
2022-08-31T17:20:31.211Z,23.50
2022-08-31T17:22:05.329Z,23.50
2022-08-31T17:23:37.250Z,23.50
2022-08-31T17:25:10.538Z,23.50
2022-08-31T17:26:45.015Z,23.40
2022-08-31T17:28:25.544Z,23.40
2022-08-31T17:30:01.009Z,23.40
2022-08-31T17:31:38.372Z,23.30
2022-08-31T17:33:12.676Z,23.30
2022-08-31T17:34:49.748Z,23.20
2022-08-31T17:36:23.411Z,23.20
2022-08-31T17:37:57.179Z,23.10
2022-08-31T17:39:30.437Z,23.10
2022-08-31T17:41:08.271Z,23.10
2022-08-31T17:42:42.577Z,23.00
2022-08-31T17:44:16.510Z,23.00
2022-08-31T17:45:49.758Z,22.90
2022-08-31T17:47:23.553Z,22.90
2022-08-31T17:48:56.137Z,22.90
2022-08-31T17:50:29.004Z,22.90
2022-08-31T17:52:06.584Z,22.80
2022-08-31T17:53:39.899Z,22.80
2022-08-31T17:55:13.025Z,22.80
2022-08-31T17:56:48.186Z,22.70
2022-08-31T17:58:22.414Z,22.70
2022-08-31T17:59:55.957Z,22.60
2022-08-31T18:01:31.227Z,22.50
2022-08-31T18:03:06.529Z,22.50
2022-08-31T18:04:40.477Z,22.40
2022-08-31T18:06:13.395Z,22.40
2022-08-31T18:07:49.943Z,22.30
2022-08-31T18:09:25.075Z,22.30
2022-08-31T18:10:57.957Z,22.30
2022-08-31T18:12:30.853Z,22.20
2022-08-31T18:14:05.044Z,22.20
2022-08-31T18:15:40.167Z,22.20
2022-08-31T18:17:16.215Z,22.10
2022-08-31T18:18:51.001Z,22.10
2022-08-31T18:20:23.945Z,22.00
2022-08-31T18:21:57.328Z,22.00
2022-08-31T18:23:30.195Z,21.90
2022-08-31T18:25:03.178Z,21.90
2022-08-31T18:26:37.937Z,21.80
2022-08-31T18:28:12.461Z,21.80
2022-08-31T18:29:46.812Z,21.70
2022-08-31T18:31:27.102Z,21.70
2022-08-31T18:33:03.589Z,21.60
2022-08-31T18:34:40.117Z,21.60
2022-08-31T18:36:13.089Z,21.50
2022-08-31T18:37:46.026Z,21.50
2022-08-31T18:39:47.677Z,21.50
2022-08-31T18:41:33.188Z,21.40
2022-08-31T18:43:20.185Z,21.40
2022-08-31T18:45:14.492Z,21.40
2022-08-31T18:46:47.792Z,21.30
2022-08-31T18:48:25.232Z,21.30
2022-08-31T18:49:59.217Z,21.20
2022-08-31T18:51:33.212Z,21.20
2022-08-31T18:53:08.187Z,21.20
2022-08-31T18:54:44.325Z,21.10
2022-08-31T18:56:18.025Z,21.10
2022-08-31T18:57:51.172Z,21.00
2022-08-31T18:59:24.388Z,21.00
2022-08-31T19:00:59.656Z,20.90
2022-08-31T19:02:33.557Z,20.90
2022-08-31T19:04:07.772Z,20.90
2022-08-31T19:05:42.036Z,20.80
2022-08-31T19:07:15.898Z,20.70
2022-08-31T19:08:50.121Z,20.70
2022-08-31T19:10:25.640Z,20.70
2022-08-31T19:12:02.398Z,20.60
2022-08-31T19:13:35.609Z,20.60
2022-08-31T19:15:11.035Z,20.60
2022-08-31T19:16:45.641Z,20.50
2022-08-31T19:18:24.651Z,20.50
2022-08-31T19:19:57.619Z,20.50
2022-08-31T19:21:33.298Z,20.40
2022-08-31T19:23:06.364Z,20.40
2022-08-31T19:24:40.910Z,20.40
2022-08-31T19:26:20.511Z,20.30
2022-08-31T19:27:55.119Z,20.40
2022-08-31T19:29:30.928Z,20.30
2022-08-31T19:31:03.805Z,20.30
2022-08-31T19:32:38.303Z,20.30
2022-08-31T19:34:12.213Z,20.30
2022-08-31T19:35:45.611Z,20.20
2022-08-31T19:37:19.281Z,20.20
2022-08-31T19:38:54.102Z,20.10
2022-08-31T19:40:43.504Z,20.10
2022-08-31T19:42:17.310Z,20.10
2022-08-31T19:43:56.032Z,20.00
2022-08-31T19:45:44.906Z,20.00
2022-08-31T19:47:25.727Z,20.00
2022-08-31T19:49:00.763Z,19.90
2022-08-31T19:50:41.525Z,19.90
2022-08-31T19:52:14.719Z,19.90
2022-08-31T19:53:49.704Z,19.80
2022-08-31T19:55:22.797Z,19.80
2022-08-31T19:56:55.156Z,19.80
2022-08-31T19:58:28.102Z,19.80
2022-08-31T20:00:01.043Z,19.80
2022-08-31T20:01:34.479Z,19.70
2022-08-31T20:03:07.473Z,19.70
2022-08-31T20:04:42.360Z,19.70
2022-08-31T20:06:19.273Z,19.70
2022-08-31T20:07:52.141Z,19.70
2022-08-31T20:09:30.175Z,19.70
2022-08-31T20:11:03.685Z,19.60
2022-08-31T20:12:36.556Z,19.60
2022-08-31T20:14:09.419Z,19.60
2022-08-31T20:15:44.989Z,19.60
2022-08-31T20:17:20.425Z,19.50
2022-08-31T20:18:57.725Z,19.50
2022-08-31T20:20:36.164Z,19.50
2022-08-31T20:22:09.063Z,19.50
2022-08-31T20:23:42.306Z,19.50
2022-08-31T20:25:18.814Z,19.40
2022-08-31T20:26:53.464Z,19.40
2022-08-31T20:28:27.075Z,19.40
2022-08-31T20:30:00.137Z,19.40
2022-08-31T20:31:33.346Z,19.40
2022-08-31T20:33:08.310Z,19.30
2022-08-31T20:34:42.829Z,19.30
2022-08-31T20:36:19.739Z,19.30
2022-08-31T20:37:52.584Z,19.30
2022-08-31T20:39:27.100Z,19.30
2022-08-31T20:41:03.913Z,19.20
2022-08-31T20:42:36.785Z,19.20
2022-08-31T20:44:11.527Z,19.20
2022-08-31T20:45:44.316Z,19.10
2022-08-31T20:47:34.771Z,19.10